Galicia — ECEC — position and weather

sailwx.info

Track history (hours):
 
Tides and Currents Weather Stations Pressure Air Temp Water Temp Dewpoint Dewpoint Depression Visibility Wind Speed Wind Dir Waves Ship Positions

Galicia

Last reported at 2014-Nov-21 11:19 UTC. Time now 2014-Nov-23 04:52 UTC.
Position N 50°12' W 001°50'.

Length 149 m; draft 5.8 m.

Type: Cargo ship. MMSI: 224548000.

Date/timePositionNaut miles runAvg speedWind from/ knotsBaromVisibWave heightAir tempDewpointWater temp
2014-Nov-21 11:19N 50°12' W 001°50'73 8.9
2014-Nov-21 03:04N 50°31' E 000°01'711.2
2014-Nov-21 02:25N 50°33' E 000°12'1011.2
2014-Nov-21 01:33N 50°36' E 000°27'1010.5
2014-Nov-21 00:33N 50°41' E 000°41'10 9.8
2014-Nov-20 23:33N 50°47' E 000°53'17 8.6
2014-Nov-20 21:32N 50°58' E 001°15'8 8.6
2014-Nov-20 20:33N 51°03' E 001°25'1110.8
2014-Nov-20 19:33N 51°09' E 001°39'1212.1
2014-Nov-20 18:33N 51°19' E 001°52'10 9.6
2014-Nov-20 17:32N 51°23' E 002°06'1110.2
2014-Nov-20 16:28N 51°21' E 002°23'1010.8
2014-Nov-20 15:33N 51°23' E 002°39'1212.2
2014-Nov-20 14:33N 51°23' E 002°58'10 9.8
2014-Nov-20 13:33N 51°20' E 003°13'2 1.6
2014-Nov-20 12:33N 51°19' E 003°14'0 0.0
2014-Nov-20 11:18N 51°19' E 003°14'0 0.0
2014-Nov-20 10:32N 51°19' E 003°14'0 0.0
2014-Nov-20 09:32N 51°19' E 003°14'0 0.0
2014-Nov-20 08:29N 51°19' E 003°14'0 0.0
2014-Nov-20 07:32N 51°19' E 003°14'0 0.0
2014-Nov-20 06:32N 51°19' E 003°14'0 0.0
2014-Nov-20 05:26N 51°19' E 003°14'0 0.0
2014-Nov-20 04:32N 51°19' E 003°14'0 0.0
2014-Nov-20 03:29N 51°18' E 003°14'0 0.0
2014-Nov-20 02:32N 51°19' E 003°14'0 0.0
2014-Nov-20 01:32N 51°19' E 003°14'0 0.0
2014-Nov-19 21:23N 51°19' E 003°14'0 0.5
2014-Nov-19 20:33N 51°19' E 003°13'1 1.4
2014-Nov-19 19:33N 51°20' E 003°13'1110.8
2014-Nov-19 18:34N 51°21' E 002°56'1313.1
2014-Nov-19 17:32N 51°22' E 002°34'1413.9
2014-Nov-19 16:34N 51°19' E 002°13'1414.1
2014-Nov-19 15:33N 51°27' E 001°54'1414.1
2014-Nov-19 14:33N 51°28' E 001°32'1414.4
2014-Nov-19 13:34N 51°29' E 001°09'1615.2
2014-Nov-19 12:32N 51°27' E 000°45'0 0.1
2014-Nov-19 11:32N 51°27' E 000°45'0 0.0
2014-Nov-19 10:32N 51°27' E 000°45'0 0.0
2014-Nov-19 09:29N 51°27' E 000°45'0 0.0
2014-Nov-19 08:29N 51°27' E 000°45'0 0.0
2014-Nov-19 07:32N 51°27' E 000°45'0 0.0
2014-Nov-19 06:29N 51°27' E 000°45'0 0.0
2014-Nov-19 05:29N 51°27' E 000°45'0 0.0
2014-Nov-19 04:32N 51°27' E 000°45'0 0.0
2014-Nov-19 03:32N 51°27' E 000°45'0 0.0
2014-Nov-19 02:32N 51°27' E 000°45'0 0.0
2014-Nov-19 01:32N 51°27' E 000°45'0 0.0
2014-Nov-19 00:29N 51°27' E 000°45'0 0.0
2014-Nov-18 23:32N 51°27' E 000°45'0 0.0
2014-Nov-18 22:29N 51°27' E 000°45'0 0.0
2014-Nov-18 21:32N 51°27' E 000°45'0 0.0
2014-Nov-18 20:33N 51°27' E 000°45'7 7.1
2014-Nov-18 19:34N 51°29' E 000°55'1716.6
2014-Nov-18 18:34N 51°29' E 001°22'8 7.7
2014-Nov-18 17:34N 51°29' E 001°34'1615.7
2014-Nov-18 16:34N 51°43' E 001°44'1615.9
2014-Nov-18 15:33N 51°59' E 001°47'1615.8
2014-Nov-18 14:34N 52°15' E 001°53'1514.9
2014-Nov-18 13:33N 52°29' E 001°59'1413.7
2014-Nov-18 12:31N 52°43' E 002°03'1313.6
2014-Nov-18 11:33N 52°51' E 001°46'1313.0
2014-Nov-18 10:33N 52°59' E 001°29'1413.6
2014-Nov-18 09:33N 53°11' E 001°17'39 9.1
2014-Nov-18 05:17N 53°44' E 000°44'7 9.1
2014-Nov-18 04:33N 53°50' E 000°39'10 9.6
2014-Nov-18 03:33N 53°58' E 000°31'10 9.7
2014-Nov-18 02:34N 54°05' E 000°20'1010.1
2014-Nov-18 01:33N 54°12' E 000°07'1010.2
2014-Nov-18 00:33N 54°19' W 000°05'1010.1
2014-Nov-17 23:33N 54°26' W 000°18'10 9.9
2014-Nov-17 22:34N 54°33' W 000°30'10 9.6
2014-Nov-17 21:32N 54°40' W 000°42'10 9.3
2014-Nov-17 20:30N 54°47' W 000°54'9 9.2
2014-Nov-17 19:33N 54°53' W 001°05'9 9.3
2014-Nov-17 18:33N 54°59' W 001°17'4 0.5
2014-Nov-17 10:20N 55°01' W 001°24'810.1
2014-Nov-17 09:33N 54°58' W 001°11'3215.0
2014-Nov-17 07:27N 54°35' W 000°33'1415.6
2014-Nov-17 06:34N 54°25' W 000°16'1615.8
2014-Nov-17 05:33N 54°14' E 000°03'1615.7
2014-Nov-17 04:33N 54°03' E 000°23'1515.1
2014-Nov-17 03:33N 53°51' E 000°38'4814.3
2014-Nov-17 00:14N 53°10' E 001°18'1015.1
2014-Nov-16 23:33N 53°01' E 001°27'1615.7
2014-Nov-16 22:33N 52°51' E 001°46'1614.6
2014-Nov-16 21:27N 52°38' E 002°02'1516.5
2014-Nov-16 20:33N 52°24' E 001°58'1616.0
2014-Nov-16 19:34N 52°08' E 001°52'1515.2
2014-Nov-16 18:34N 51°53' E 001°48'1514.7
2014-Nov-16 17:34N 51°38' E 001°50'1514.9
2014-Nov-16 16:34N 51°24' E 001°44'1514.7
2014-Nov-16 15:34N 51°10' E 001°38'1313.2
2014-Nov-16 14:33N 50°57' E 001°31'  
2014-Nov-13 20:15N 38°07' W 009°40'1014.3
2014-Nov-13 19:33N 37°57' W 009°38'1414.4
2014-Nov-13 18:33N 37°43' W 009°34'22413.0
2014-Nov-13 01:21N 35°60' W 005°25'1012.6
2014-Nov-13 00:33N 36°04' W 005°14'21213.8
2014-Nov-12 09:13N 37°13' W 001°04'1115.2
2014-Nov-12 08:30N 37°20' W 000°53'1615.8
2014-Nov-12 07:30N 37°31' W 000°39'1515.8
2014-Nov-12 06:33N 37°42' W 000°26'1616.0
2014-Nov-12 05:33N 37°56' W 000°17'13115.5
2014-Nov-11 21:05N 39°49' E 001°09'815.7
2014-Nov-11 20:33N 39°56' E 001°15'1615.8
2014-Nov-11 19:33N 40°10' E 001°24'1616.0
2014-Nov-11 18:33N 40°24' E 001°34'1615.8
2014-Nov-11 17:33N 40°38' E 001°44'1615.6
2014-Nov-11 16:33N 40°52' E 001°53'1715.8
2014-Nov-11 15:29N 41°07' E 002°04'  
Track history (hours):
 
Tides and Currents Weather Stations Pressure Air Temp Water Temp Dewpoint Dewpoint Depression Visibility Wind Speed Wind Dir Waves Ship Positions

Galicia

Last reported at 2014-Nov-21 11:19 UTC. Time now 2014-Nov-23 04:52 UTC.
Position N 50°12' W 001°50'.

Length 149 m; draft 5.8 m.

Type: Cargo ship. MMSI: 224548000.

Date/timePositionNaut miles runAvg speedWind from/ knotsBaromVisibWave heightAir tempDewpointWater temp
2014-Nov-21 11:19N 50°12' W 001°50'73 8.9
2014-Nov-21 03:04N 50°31' E 000°01'711.2
2014-Nov-21 02:25N 50°33' E 000°12'1011.2
2014-Nov-21 01:33N 50°36' E 000°27'1010.5
2014-Nov-21 00:33N 50°41' E 000°41'10 9.8
2014-Nov-20 23:33N 50°47' E 000°53'17 8.6
2014-Nov-20 21:32N 50°58' E 001°15'8 8.6
2014-Nov-20 20:33N 51°03' E 001°25'1110.8
2014-Nov-20 19:33N 51°09' E 001°39'1212.1
2014-Nov-20 18:33N 51°19' E 001°52'10 9.6
2014-Nov-20 17:32N 51°23' E 002°06'1110.2
2014-Nov-20 16:28N 51°21' E 002°23'1010.8
2014-Nov-20 15:33N 51°23' E 002°39'1212.2
2014-Nov-20 14:33N 51°23' E 002°58'10 9.8
2014-Nov-20 13:33N 51°20' E 003°13'2 1.6
2014-Nov-20 12:33N 51°19' E 003°14'0 0.0
2014-Nov-20 11:18N 51°19' E 003°14'0 0.0
2014-Nov-20 10:32N 51°19' E 003°14'0 0.0
2014-Nov-20 09:32N 51°19' E 003°14'0 0.0
2014-Nov-20 08:29N 51°19' E 003°14'0 0.0
2014-Nov-20 07:32N 51°19' E 003°14'0 0.0
2014-Nov-20 06:32N 51°19' E 003°14'0 0.0
2014-Nov-20 05:26N 51°19' E 003°14'0 0.0
2014-Nov-20 04:32N 51°19' E 003°14'0 0.0
2014-Nov-20 03:29N 51°18' E 003°14'0 0.0
2014-Nov-20 02:32N 51°19' E 003°14'0 0.0
2014-Nov-20 01:32N 51°19' E 003°14'0 0.0
2014-Nov-19 21:23N 51°19' E 003°14'0 0.5
2014-Nov-19 20:33N 51°19' E 003°13'1 1.4
2014-Nov-19 19:33N 51°20' E 003°13'1110.8
2014-Nov-19 18:34N 51°21' E 002°56'1313.1
2014-Nov-19 17:32N 51°22' E 002°34'1413.9
2014-Nov-19 16:34N 51°19' E 002°13'1414.1
2014-Nov-19 15:33N 51°27' E 001°54'1414.1
2014-Nov-19 14:33N 51°28' E 001°32'1414.4
2014-Nov-19 13:34N 51°29' E 001°09'1615.2
2014-Nov-19 12:32N 51°27' E 000°45'0 0.1
2014-Nov-19 11:32N 51°27' E 000°45'0 0.0
2014-Nov-19 10:32N 51°27' E 000°45'0 0.0
2014-Nov-19 09:29N 51°27' E 000°45'0 0.0
2014-Nov-19 08:29N 51°27' E 000°45'0 0.0
2014-Nov-19 07:32N 51°27' E 000°45'0 0.0
2014-Nov-19 06:29N 51°27' E 000°45'0 0.0
2014-Nov-19 05:29N 51°27' E 000°45'0 0.0
2014-Nov-19 04:32N 51°27' E 000°45'0 0.0
2014-Nov-19 03:32N 51°27' E 000°45'0 0.0
2014-Nov-19 02:32N 51°27' E 000°45'0 0.0
2014-Nov-19 01:32N 51°27' E 000°45'0 0.0
2014-Nov-19 00:29N 51°27' E 000°45'0 0.0
2014-Nov-18 23:32N 51°27' E 000°45'0 0.0
2014-Nov-18 22:29N 51°27' E 000°45'0 0.0
2014-Nov-18 21:32N 51°27' E 000°45'0 0.0
2014-Nov-18 20:33N 51°27' E 000°45'7 7.1
2014-Nov-18 19:34N 51°29' E 000°55'1716.6
2014-Nov-18 18:34N 51°29' E 001°22'8 7.7
2014-Nov-18 17:34N 51°29' E 001°34'1615.7
2014-Nov-18 16:34N 51°43' E 001°44'1615.9
2014-Nov-18 15:33N 51°59' E 001°47'1615.8
2014-Nov-18 14:34N 52°15' E 001°53'1514.9
2014-Nov-18 13:33N 52°29' E 001°59'1413.7
2014-Nov-18 12:31N 52°43' E 002°03'1313.6
2014-Nov-18 11:33N 52°51' E 001°46'1313.0
2014-Nov-18 10:33N 52°59' E 001°29'1413.6
2014-Nov-18 09:33N 53°11' E 001°17'39 9.1
2014-Nov-18 05:17N 53°44' E 000°44'7 9.1
2014-Nov-18 04:33N 53°50' E 000°39'10 9.6
2014-Nov-18 03:33N 53°58' E 000°31'10 9.7
2014-Nov-18 02:34N 54°05' E 000°20'1010.1
2014-Nov-18 01:33N 54°12' E 000°07'1010.2
2014-Nov-18 00:33N 54°19' W 000°05'1010.1
2014-Nov-17 23:33N 54°26' W 000°18'10 9.9
2014-Nov-17 22:34N 54°33' W 000°30'10 9.6
2014-Nov-17 21:32N 54°40' W 000°42'10 9.3
2014-Nov-17 20:30N 54°47' W 000°54'9 9.2
2014-Nov-17 19:33N 54°53' W 001°05'9 9.3
2014-Nov-17 18:33N 54°59' W 001°17'4 0.5
2014-Nov-17 10:20N 55°01' W 001°24'810.1
2014-Nov-17 09:33N 54°58' W 001°11'3215.0
2014-Nov-17 07:27N 54°35' W 000°33'1415.6
2014-Nov-17 06:34N 54°25' W 000°16'1615.8
2014-Nov-17 05:33N 54°14' E 000°03'1615.7
2014-Nov-17 04:33N 54°03' E 000°23'1515.1
2014-Nov-17 03:33N 53°51' E 000°38'4814.3
2014-Nov-17 00:14N 53°10' E 001°18'1015.1
2014-Nov-16 23:33N 53°01' E 001°27'1615.7
2014-Nov-16 22:33N 52°51' E 001°46'1614.6
2014-Nov-16 21:27N 52°38' E 002°02'1516.5
2014-Nov-16 20:33N 52°24' E 001°58'1616.0
2014-Nov-16 19:34N 52°08' E 001°52'1515.2
2014-Nov-16 18:34N 51°53' E 001°48'1514.7
2014-Nov-16 17:34N 51°38' E 001°50'1514.9
2014-Nov-16 16:34N 51°24' E 001°44'1514.7
2014-Nov-16 15:34N 51°10' E 001°38'1313.2
2014-Nov-16 14:33N 50°57' E 001°31'  
2014-Nov-13 20:15N 38°07' W 009°40'1014.3
2014-Nov-13 19:33N 37°57' W 009°38'1414.4
2014-Nov-13 18:33N 37°43' W 009°34'22413.0
2014-Nov-13 01:21N 35°60' W 005°25'1012.6
2014-Nov-13 00:33N 36°04' W 005°14'21213.8
2014-Nov-12 09:13N 37°13' W 001°04'1115.2
2014-Nov-12 08:30N 37°20' W 000°53'1615.8
2014-Nov-12 07:30N 37°31' W 000°39'1515.8
2014-Nov-12 06:33N 37°42' W 000°26'1616.0
2014-Nov-12 05:33N 37°56' W 000°17'13115.5
2014-Nov-11 21:05N 39°49' E 001°09'815.7
2014-Nov-11 20:33N 39°56' E 001°15'1615.8
2014-Nov-11 19:33N 40°10' E 001°24'1616.0
2014-Nov-11 18:33N 40°24' E 001°34'1615.8
2014-Nov-11 17:33N 40°38' E 001°44'1615.6
2014-Nov-11 16:33N 40°52' E 001°53'1715.8
2014-Nov-11 15:29N 41°07' E 002°04'  

Dump ship's entire track history